sensor_id;sensor_type;location;lat;lon;timestamp;P1;durP1;ratioP1;P2;durP2;ratioP2
32876;SDS011;19226;51.600;8.034;2023-04-24T00:00:16;3.10;;;0.40;;
32876;SDS011;19226;51.600;8.034;2023-04-24T00:03:01;0.40;;;0.40;;
32876;SDS011;19226;51.600;8.034;2023-04-24T00:05:46;3.00;;;0.35;;
32876;SDS011;19226;51.600;8.034;2023-04-24T00:08:31;0.45;;;0.32;;
32876;SDS011;19226;51.600;8.034;2023-04-24T00:11:16;2.47;;;0.70;;
32876;SDS011;19226;51.600;8.034;2023-04-24T00:14:00;0.30;;;0.30;;
32876;SDS011;19226;51.600;8.034;2023-04-24T00:16:45;1.02;;;0.47;;
32876;SDS011;19226;51.600;8.034;2023-04-24T00:19:29;0.75;;;0.75;;
32876;SDS011;19226;51.600;8.034;2023-04-24T00:22:14;0.77;;;0.40;;
32876;SDS011;19226;51.600;8.034;2023-04-24T00:24:58;1.13;;;0.30;;
32876;SDS011;19226;51.600;8.034;2023-04-24T00:27:43;0.40;;;0.40;;
32876;SDS011;19226;51.600;8.034;2023-04-24T00:30:28;0.30;;;0.30;;
32876;SDS011;19226;51.600;8.034;2023-04-24T00:33:12;0.40;;;0.40;;
32876;SDS011;19226;51.600;8.034;2023-04-24T00:35:57;3.30;;;0.43;;
32876;SDS011;19226;51.600;8.034;2023-04-24T00:38:42;0.47;;;0.47;;
32876;SDS011;19226;51.600;8.034;2023-04-24T00:41:26;1.15;;;0.40;;
32876;SDS011;19226;51.600;8.034;2023-04-24T00:44:11;0.40;;;0.40;;
32876;SDS011;19226;51.600;8.034;2023-04-24T00:46:55;2.40;;;0.38;;
32876;SDS011;19226;51.600;8.034;2023-04-24T00:49:41;0.75;;;0.43;;
32876;SDS011;19226;51.600;8.034;2023-04-24T00:52:25;0.95;;;0.45;;
32876;SDS011;19226;51.600;8.034;2023-04-24T00:55:10;0.40;;;0.40;;
32876;SDS011;19226;51.600;8.034;2023-04-24T00:57:55;0.60;;;0.43;;
32876;SDS011;19226;51.600;8.034;2023-04-24T01:00:39;1.70;;;0.45;;
32876;SDS011;19226;51.600;8.034;2023-04-24T01:03:25;1.65;;;0.50;;
32876;SDS011;19226;51.600;8.034;2023-04-24T01:06:12;1.38;;;0.50;;
32876;SDS011;19226;51.600;8.034;2023-04-24T01:08:58;0.45;;;0.40;;
32876;SDS011;19226;51.600;8.034;2023-04-24T01:11:44;0.50;;;0.50;;
32876;SDS011;19226;51.600;8.034;2023-04-24T01:14:29;0.63;;;0.45;;
32876;SDS011;19226;51.600;8.034;2023-04-24T01:17:14;0.85;;;0.50;;
32876;SDS011;19226;51.600;8.034;2023-04-24T01:19:59;0.52;;;0.52;;
32876;SDS011;19226;51.600;8.034;2023-04-24T01:22:44;1.00;;;0.60;;
32876;SDS011;19226;51.600;8.034;2023-04-24T01:25:29;0.40;;;0.40;;
32876;SDS011;19226;51.600;8.034;2023-04-24T01:28:15;0.65;;;0.43;;
32876;SDS011;19226;51.600;8.034;2023-04-24T01:31:00;3.75;;;0.50;;
32876;SDS011;19226;51.600;8.034;2023-04-24T01:33:45;0.45;;;0.45;;
32876;SDS011;19226;51.600;8.034;2023-04-24T01:36:29;1.90;;;0.50;;
32876;SDS011;19226;51.600;8.034;2023-04-24T01:39:16;4.10;;;0.60;;
32876;SDS011;19226;51.600;8.034;2023-04-24T01:42:00;1.20;;;0.50;;
32876;SDS011;19226;51.600;8.034;2023-04-24T01:44:46;4.03;;;0.47;;
32876;SDS011;19226;51.600;8.034;2023-04-24T01:47:31;0.80;;;0.52;;
32876;SDS011;19226;51.600;8.034;2023-04-24T01:50:16;0.95;;;0.75;;
32876;SDS011;19226;51.600;8.034;2023-04-24T01:53:01;0.88;;;0.68;;
32876;SDS011;19226;51.600;8.034;2023-04-24T01:55:45;2.05;;;0.60;;
32876;SDS011;19226;51.600;8.034;2023-04-24T01:58:30;0.75;;;0.57;;
32876;SDS011;19226;51.600;8.034;2023-04-24T02:01:19;0.50;;;0.50;;
32876;SDS011;19226;51.600;8.034;2023-04-24T02:04:05;1.77;;;0.70;;
32876;SDS011;19226;51.600;8.034;2023-04-24T02:06:53;0.73;;;0.60;;
32876;SDS011;19226;51.600;8.034;2023-04-24T02:09:37;0.60;;;0.60;;
32876;SDS011;19226;51.600;8.034;2023-04-24T02:12:23;3.22;;;0.70;;
32876;SDS011;19226;51.600;8.034;2023-04-24T02:15:09;0.60;;;0.60;;
32876;SDS011;19226;51.600;8.034;2023-04-24T02:17:55;0.40;;;0.40;;
32876;SDS011;19226;51.600;8.034;2023-04-24T02:20:39;1.40;;;0.70;;
32876;SDS011;19226;51.600;8.034;2023-04-24T02:23:24;2.63;;;0.75;;
32876;SDS011;19226;51.600;8.034;2023-04-24T02:26:09;0.80;;;0.70;;
32876;SDS011;19226;51.600;8.034;2023-04-24T02:28:54;0.70;;;0.70;;
32876;SDS011;19226;51.600;8.034;2023-04-24T02:31:38;1.15;;;0.50;;
32876;SDS011;19226;51.600;8.034;2023-04-24T02:34:24;1.10;;;0.82;;
32876;SDS011;19226;51.600;8.034;2023-04-24T02:37:08;0.60;;;0.60;;
32876;SDS011;19226;51.600;8.034;2023-04-24T02:39:54;0.60;;;0.60;;
32876;SDS011;19226;51.600;8.034;2023-04-24T02:42:38;1.58;;;1.13;;
32876;SDS011;19226;51.600;8.034;2023-04-24T02:45:23;2.53;;;0.85;;
32876;SDS011;19226;51.600;8.034;2023-04-24T02:48:08;0.80;;;0.80;;
32876;SDS011;19226;51.600;8.034;2023-04-24T02:50:52;5.35;;;1.00;;
32876;SDS011;19226;51.600;8.034;2023-04-24T02:53:37;1.00;;;0.88;;
32876;SDS011;19226;51.600;8.034;2023-04-24T02:56:22;2.20;;;1.60;;
32876;SDS011;19226;51.600;8.034;2023-04-24T02:59:06;1.02;;;1.00;;
32876;SDS011;19226;51.600;8.034;2023-04-24T03:01:51;1.88;;;1.73;;
32876;SDS011;19226;51.600;8.034;2023-04-24T03:04:35;1.92;;;1.83;;
32876;SDS011;19226;51.600;8.034;2023-04-24T03:07:20;3.55;;;1.75;;
32876;SDS011;19226;51.600;8.034;2023-04-24T03:10:05;2.00;;;1.90;;
32876;SDS011;19226;51.600;8.034;2023-04-24T03:12:50;3.90;;;2.05;;
32876;SDS011;19226;51.600;8.034;2023-04-24T03:15:36;2.30;;;1.90;;
32876;SDS011;19226;51.600;8.034;2023-04-24T03:18:20;2.15;;;1.98;;
32876;SDS011;19226;51.600;8.034;2023-04-24T03:21:07;2.00;;;1.90;;
32876;SDS011;19226;51.600;8.034;2023-04-24T03:23:52;1.70;;;1.60;;
32876;SDS011;19226;51.600;8.034;2023-04-24T03:26:37;2.33;;;1.95;;
32876;SDS011;19226;51.600;8.034;2023-04-24T03:29:37;1.83;;;1.73;;
32876;SDS011;19226;51.600;8.034;2023-04-24T03:32:22;1.60;;;1.50;;
32876;SDS011;19226;51.600;8.034;2023-04-24T03:35:07;1.73;;;1.60;;
32876;SDS011;19226;51.600;8.034;2023-04-24T03:37:52;2.20;;;2.00;;
32876;SDS011;19226;51.600;8.034;2023-04-24T03:40:56;1.85;;;1.75;;
32876;SDS011;19226;51.600;8.034;2023-04-24T03:44:07;1.90;;;1.80;;
32876;SDS011;19226;51.600;8.034;2023-04-24T03:46:51;2.50;;;2.30;;
32876;SDS011;19226;51.600;8.034;2023-04-24T03:49:38;4.70;;;2.35;;
32876;SDS011;19226;51.600;8.034;2023-04-24T03:52:23;3.75;;;3.10;;
32876;SDS011;19226;51.600;8.034;2023-04-24T03:55:08;5.05;;;3.22;;
32876;SDS011;19226;51.600;8.034;2023-04-24T03:57:59;5.07;;;3.30;;
32876;SDS011;19226;51.600;8.034;2023-04-24T04:00:44;4.05;;;3.20;;
32876;SDS011;19226;51.600;8.034;2023-04-24T04:03:50;3.60;;;3.30;;
32876;SDS011;19226;51.600;8.034;2023-04-24T04:06:38;4.32;;;3.45;;
32876;SDS011;19226;51.600;8.034;2023-04-24T04:09:23;8.35;;;4.65;;
32876;SDS011;19226;51.600;8.034;2023-04-24T04:12:08;9.07;;;5.53;;
32876;SDS011;19226;51.600;8.034;2023-04-24T04:14:53;5.90;;;5.30;;
32876;SDS011;19226;51.600;8.034;2023-04-24T04:17:38;6.22;;;5.65;;
32876;SDS011;19226;51.600;8.034;2023-04-24T04:20:25;8.77;;;5.45;;
32876;SDS011;19226;51.600;8.034;2023-04-24T04:23:10;10.98;;;6.68;;
32876;SDS011;19226;51.600;8.034;2023-04-24T04:26:08;9.57;;;8.30;;
32876;SDS011;19226;51.600;8.034;2023-04-24T04:29:13;10.18;;;8.73;;
32876;SDS011;19226;51.600;8.034;2023-04-24T04:32:01;14.40;;;9.85;;
32876;SDS011;19226;51.600;8.034;2023-04-24T04:34:46;12.00;;;9.32;;
32876;SDS011;19226;51.600;8.034;2023-04-24T04:37:33;12.10;;;9.30;;
32876;SDS011;19226;51.600;8.034;2023-04-24T04:40:47;13.20;;;10.20;;
32876;SDS011;19226;51.600;8.034;2023-04-24T04:43:33;13.98;;;9.75;;
32876;SDS011;19226;51.600;8.034;2023-04-24T04:46:18;12.27;;;9.10;;
32876;SDS011;19226;51.600;8.034;2023-04-24T04:49:15;13.23;;;8.40;;
32876;SDS011;19226;51.600;8.034;2023-04-24T04:52:01;12.85;;;9.50;;
32876;SDS011;19226;51.600;8.034;2023-04-24T04:54:46;10.90;;;9.35;;
32876;SDS011;19226;51.600;8.034;2023-04-24T04:57:31;13.68;;;9.85;;
32876;SDS011;19226;51.600;8.034;2023-04-24T05:00:15;13.25;;;9.60;;
32876;SDS011;19226;51.600;8.034;2023-04-24T05:03:06;14.00;;;9.68;;
32876;SDS011;19226;51.600;8.034;2023-04-24T05:05:50;11.55;;;9.13;;
32876;SDS011;19226;51.600;8.034;2023-04-24T05:08:36;14.90;;;9.73;;
32876;SDS011;19226;51.600;8.034;2023-04-24T05:11:24;11.73;;;8.55;;
32876;SDS011;19226;51.600;8.034;2023-04-24T05:14:09;19.65;;;9.23;;
32876;SDS011;19226;51.600;8.034;2023-04-24T05:16:56;12.50;;;9.18;;
32876;SDS011;19226;51.600;8.034;2023-04-24T05:19:43;15.55;;;9.25;;
32876;SDS011;19226;51.600;8.034;2023-04-24T05:22:28;14.20;;;9.20;;
32876;SDS011;19226;51.600;8.034;2023-04-24T05:25:12;11.65;;;8.07;;
32876;SDS011;19226;51.600;8.034;2023-04-24T05:28:03;13.52;;;9.18;;
32876;SDS011;19226;51.600;8.034;2023-04-24T05:30:47;12.30;;;8.20;;
32876;SDS011;19226;51.600;8.034;2023-04-24T05:33:34;15.63;;;7.80;;
32876;SDS011;19226;51.600;8.034;2023-04-24T05:36:19;9.20;;;7.65;;
32876;SDS011;19226;51.600;8.034;2023-04-24T05:39:04;9.38;;;7.90;;
32876;SDS011;19226;51.600;8.034;2023-04-24T05:41:49;11.88;;;7.35;;
32876;SDS011;19226;51.600;8.034;2023-04-24T05:44:33;13.18;;;7.78;;
32876;SDS011;19226;51.600;8.034;2023-04-24T05:47:18;11.30;;;8.63;;
32876;SDS011;19226;51.600;8.034;2023-04-24T05:50:03;13.05;;;8.13;;
32876;SDS011;19226;51.600;8.034;2023-04-24T05:52:48;10.18;;;7.60;;
32876;SDS011;19226;51.600;8.034;2023-04-24T05:55:42;11.48;;;8.18;;
32876;SDS011;19226;51.600;8.034;2023-04-24T05:58:26;13.00;;;8.50;;
32876;SDS011;19226;51.600;8.034;2023-04-24T06:01:12;10.60;;;8.40;;
32876;SDS011;19226;51.600;8.034;2023-04-24T06:03:59;8.98;;;7.25;;
32876;SDS011;19226;51.600;8.034;2023-04-24T06:06:44;10.23;;;7.78;;
32876;SDS011;19226;51.600;8.034;2023-04-24T06:09:29;9.00;;;7.22;;
32876;SDS011;19226;51.600;8.034;2023-04-24T06:12:14;11.60;;;8.07;;
32876;SDS011;19226;51.600;8.034;2023-04-24T06:15:10;11.93;;;7.90;;
32876;SDS011;19226;51.600;8.034;2023-04-24T06:18:21;11.27;;;7.28;;
32876;SDS011;19226;51.600;8.034;2023-04-24T06:21:06;9.70;;;6.95;;
32876;SDS011;19226;51.600;8.034;2023-04-24T06:23:50;8.05;;;6.72;;
32876;SDS011;19226;51.600;8.034;2023-04-24T06:26:35;13.85;;;7.05;;
32876;SDS011;19226;51.600;8.034;2023-04-24T06:29:20;8.13;;;5.80;;
32876;SDS011;19226;51.600;8.034;2023-04-24T06:32:04;8.90;;;6.32;;
32876;SDS011;19226;51.600;8.034;2023-04-24T06:34:52;8.30;;;5.93;;
32876;SDS011;19226;51.600;8.034;2023-04-24T06:37:38;5.30;;;4.80;;
32876;SDS011;19226;51.600;8.034;2023-04-24T06:40:26;5.35;;;4.78;;
32876;SDS011;19226;51.600;8.034;2023-04-24T06:43:10;10.98;;;5.22;;
32876;SDS011;19226;51.600;8.034;2023-04-24T06:45:55;6.70;;;5.20;;
32876;SDS011;19226;51.600;8.034;2023-04-24T06:48:40;5.32;;;4.82;;
32876;SDS011;19226;51.600;8.034;2023-04-24T06:51:25;5.38;;;4.85;;
32876;SDS011;19226;51.600;8.034;2023-04-24T06:54:10;9.30;;;5.05;;
32876;SDS011;19226;51.600;8.034;2023-04-24T06:56:55;5.47;;;4.97;;
32876;SDS011;19226;51.600;8.034;2023-04-24T06:59:41;7.45;;;4.63;;
32876;SDS011;19226;51.600;8.034;2023-04-24T07:02:25;7.05;;;5.03;;
32876;SDS011;19226;51.600;8.034;2023-04-24T07:05:10;4.93;;;4.43;;
32876;SDS011;19226;51.600;8.034;2023-04-24T07:07:54;8.73;;;4.90;;
32876;SDS011;19226;51.600;8.034;2023-04-24T07:10:39;4.88;;;4.15;;
32876;SDS011;19226;51.600;8.034;2023-04-24T07:13:24;4.35;;;3.92;;
32876;SDS011;19226;51.600;8.034;2023-04-24T07:16:09;8.07;;;3.47;;
32876;SDS011;19226;51.600;8.034;2023-04-24T07:18:54;4.75;;;3.10;;
32876;SDS011;19226;51.600;8.034;2023-04-24T07:21:38;3.95;;;2.97;;
32876;SDS011;19226;51.600;8.034;2023-04-24T07:24:24;5.50;;;3.10;;
32876;SDS011;19226;51.600;8.034;2023-04-24T07:27:09;3.35;;;2.90;;
32876;SDS011;19226;51.600;8.034;2023-04-24T07:29:53;5.53;;;3.35;;
32876;SDS011;19226;51.600;8.034;2023-04-24T07:32:38;3.05;;;2.63;;
32876;SDS011;19226;51.600;8.034;2023-04-24T07:35:23;2.78;;;2.55;;
32876;SDS011;19226;51.600;8.034;2023-04-24T07:38:09;3.22;;;2.15;;
32876;SDS011;19226;51.600;8.034;2023-04-24T07:40:53;2.33;;;2.13;;
32876;SDS011;19226;51.600;8.034;2023-04-24T07:43:39;2.30;;;2.05;;
32876;SDS011;19226;51.600;8.034;2023-04-24T07:46:24;5.05;;;2.58;;
32876;SDS011;19226;51.600;8.034;2023-04-24T07:49:08;6.15;;;2.63;;
32876;SDS011;19226;51.600;8.034;2023-04-24T07:51:53;2.75;;;2.55;;
32876;SDS011;19226;51.600;8.034;2023-04-24T07:54:38;2.28;;;2.10;;
32876;SDS011;19226;51.600;8.034;2023-04-24T07:57:22;2.60;;;2.40;;
32876;SDS011;19226;51.600;8.034;2023-04-24T08:00:07;3.47;;;2.33;;
32876;SDS011;19226;51.600;8.034;2023-04-24T08:02:56;5.13;;;2.20;;
32876;SDS011;19226;51.600;8.034;2023-04-24T08:05:41;2.38;;;2.13;;
32876;SDS011;19226;51.600;8.034;2023-04-24T08:08:26;3.78;;;2.28;;
32876;SDS011;19226;51.600;8.034;2023-04-24T08:11:11;4.00;;;2.50;;
32876;SDS011;19226;51.600;8.034;2023-04-24T08:13:55;2.63;;;2.00;;
32876;SDS011;19226;51.600;8.034;2023-04-24T08:16:40;2.05;;;1.85;;
32876;SDS011;19226;51.600;8.034;2023-04-24T08:19:25;3.67;;;1.75;;
32876;SDS011;19226;51.600;8.034;2023-04-24T08:22:10;1.58;;;1.48;;
32876;SDS011;19226;51.600;8.034;2023-04-24T08:24:54;1.35;;;1.25;;
32876;SDS011;19226;51.600;8.034;2023-04-24T08:27:41;1.33;;;1.23;;
32876;SDS011;19226;51.600;8.034;2023-04-24T08:30:25;1.55;;;1.45;;
32876;SDS011;19226;51.600;8.034;2023-04-24T08:33:10;1.40;;;1.30;;
32876;SDS011;19226;51.600;8.034;2023-04-24T08:35:54;1.77;;;1.00;;
32876;SDS011;19226;51.600;8.034;2023-04-24T08:38:39;1.30;;;1.20;;
32876;SDS011;19226;51.600;8.034;2023-04-24T08:41:23;1.40;;;1.30;;
32876;SDS011;19226;51.600;8.034;2023-04-24T08:44:10;1.00;;;1.00;;
32876;SDS011;19226;51.600;8.034;2023-04-24T08:46:55;5.53;;;1.10;;
32876;SDS011;19226;51.600;8.034;2023-04-24T08:49:40;2.03;;;1.60;;
32876;SDS011;19226;51.600;8.034;2023-04-24T08:52:25;1.00;;;0.90;;
32876;SDS011;19226;51.600;8.034;2023-04-24T08:55:12;0.70;;;0.70;;
32876;SDS011;19226;51.600;8.034;2023-04-24T08:57:56;0.93;;;0.70;;
32876;SDS011;19226;51.600;8.034;2023-04-24T09:00:42;1.85;;;0.70;;
32876;SDS011;19226;51.600;8.034;2023-04-24T09:03:31;3.15;;;0.70;;
32876;SDS011;19226;51.600;8.034;2023-04-24T09:06:17;1.40;;;0.60;;
32876;SDS011;19226;51.600;8.034;2023-04-24T09:09:03;0.50;;;0.50;;
32876;SDS011;19226;51.600;8.034;2023-04-24T09:11:48;0.50;;;0.50;;
32876;SDS011;19226;51.600;8.034;2023-04-24T09:14:36;0.57;;;0.57;;
32876;SDS011;19226;51.600;8.034;2023-04-24T09:17:23;0.85;;;0.40;;
32876;SDS011;19226;51.600;8.034;2023-04-24T09:20:10;0.43;;;0.40;;
32876;SDS011;19226;51.600;8.034;2023-04-24T09:22:56;0.40;;;0.40;;
32876;SDS011;19226;51.600;8.034;2023-04-24T09:25:42;0.40;;;0.40;;
32876;SDS011;19226;51.600;8.034;2023-04-24T09:31:15;0.50;;;0.50;;
32876;SDS011;19226;51.600;8.034;2023-04-24T09:34:03;0.52;;;0.40;;
32876;SDS011;19226;51.600;8.034;2023-04-24T09:36:51;0.25;;;0.25;;
32876;SDS011;19226;51.600;8.034;2023-04-24T09:39:36;0.30;;;0.30;;
32876;SDS011;19226;51.600;8.034;2023-04-24T09:42:21;0.40;;;0.40;;
32876;SDS011;19226;51.600;8.034;2023-04-24T09:45:09;0.40;;;0.40;;
32876;SDS011;19226;51.600;8.034;2023-04-24T09:47:55;0.30;;;0.30;;
32876;SDS011;19226;51.600;8.034;2023-04-24T09:50:40;0.30;;;0.30;;
32876;SDS011;19226;51.600;8.034;2023-04-24T09:53:30;5.38;;;0.40;;
32876;SDS011;19226;51.600;8.034;2023-04-24T09:56:18;0.30;;;0.30;;
32876;SDS011;19226;51.600;8.034;2023-04-24T09:59:05;0.40;;;0.40;;
32876;SDS011;19226;51.600;8.034;2023-04-24T10:01:50;0.30;;;0.30;;
32876;SDS011;19226;51.600;8.034;2023-04-24T10:04:35;0.30;;;0.30;;
32876;SDS011;19226;51.600;8.034;2023-04-24T10:07:20;0.60;;;0.40;;
32876;SDS011;19226;51.600;8.034;2023-04-24T10:10:05;0.45;;;0.40;;
32876;SDS011;19226;51.600;8.034;2023-04-24T10:12:50;1.20;;;0.65;;
32876;SDS011;19226;51.600;8.034;2023-04-24T10:15:36;0.55;;;0.30;;
32876;SDS011;19226;51.600;8.034;2023-04-24T10:18:22;0.40;;;0.40;;
32876;SDS011;19226;51.600;8.034;2023-04-24T10:21:08;0.85;;;0.60;;
32876;SDS011;19226;51.600;8.034;2023-04-24T10:23:53;0.40;;;0.40;;
32876;SDS011;19226;51.600;8.034;2023-04-24T10:26:38;0.80;;;0.80;;
32876;SDS011;19226;51.600;8.034;2023-04-24T10:29:24;0.68;;;0.68;;
32876;SDS011;19226;51.600;8.034;2023-04-24T10:32:09;0.90;;;0.80;;
32876;SDS011;19226;51.600;8.034;2023-04-24T10:34:55;4.25;;;1.90;;
32876;SDS011;19226;51.600;8.034;2023-04-24T10:37:44;1.40;;;1.30;;
32876;SDS011;19226;51.600;8.034;2023-04-24T10:40:35;1.75;;;1.65;;
32876;SDS011;19226;51.600;8.034;2023-04-24T10:43:21;1.60;;;1.50;;
32876;SDS011;19226;51.600;8.034;2023-04-24T10:46:06;1.55;;;1.45;;
32876;SDS011;19226;51.600;8.034;2023-04-24T10:48:54;7.18;;;1.52;;
32876;SDS011;19226;51.600;8.034;2023-04-24T10:51:49;3.40;;;1.85;;
32876;SDS011;19226;51.600;8.034;2023-04-24T10:57:29;2.40;;;2.13;;
32876;SDS011;19226;51.600;8.034;2023-04-24T11:03:24;4.45;;;2.38;;
32876;SDS011;19226;51.600;8.034;2023-04-24T11:06:12;5.82;;;2.08;;
32876;SDS011;19226;51.600;8.034;2023-04-24T11:11:51;3.40;;;2.53;;
32876;SDS011;19226;51.600;8.034;2023-04-24T11:17:41;4.43;;;3.13;;
32876;SDS011;19226;51.600;8.034;2023-04-24T11:20:26;2.80;;;2.47;;
32876;SDS011;19226;51.600;8.034;2023-04-24T11:23:12;6.03;;;2.78;;
32876;SDS011;19226;51.600;8.034;2023-04-24T11:26:10;3.08;;;2.20;;
32876;SDS011;19226;51.600;8.034;2023-04-24T11:29:16;1.73;;;1.63;;
32876;SDS011;19226;51.600;8.034;2023-04-24T11:32:14;1.60;;;1.50;;
32876;SDS011;19226;51.600;8.034;2023-04-24T11:35:03;8.07;;;2.50;;
32876;SDS011;19226;51.600;8.034;2023-04-24T11:37:58;3.10;;;2.30;;
32876;SDS011;19226;51.600;8.034;2023-04-24T11:40:46;3.33;;;2.67;;
32876;SDS011;19226;51.600;8.034;2023-04-24T11:43:33;2.85;;;2.65;;
32876;SDS011;19226;51.600;8.034;2023-04-24T11:46:18;5.03;;;2.88;;
32876;SDS011;19226;51.600;8.034;2023-04-24T11:49:05;5.00;;;3.40;;
32876;SDS011;19226;51.600;8.034;2023-04-24T11:51:50;6.57;;;3.03;;
32876;SDS011;19226;51.600;8.034;2023-04-24T11:54:46;3.42;;;2.42;;
32876;SDS011;19226;51.600;8.034;2023-04-24T11:57:36;3.50;;;2.88;;
32876;SDS011;19226;51.600;8.034;2023-04-24T12:00:21;5.38;;;3.22;;
32876;SDS011;19226;51.600;8.034;2023-04-24T12:03:13;3.75;;;3.38;;
32876;SDS011;19226;51.600;8.034;2023-04-24T12:06:04;8.18;;;3.95;;
32876;SDS011;19226;51.600;8.034;2023-04-24T12:08:52;5.00;;;4.10;;
32876;SDS011;19226;51.600;8.034;2023-04-24T12:11:38;8.13;;;4.20;;
32876;SDS011;19226;51.600;8.034;2023-04-24T12:14:47;7.93;;;4.20;;
32876;SDS011;19226;51.600;8.034;2023-04-24T12:17:42;12.90;;;4.10;;
32876;SDS011;19226;51.600;8.034;2023-04-24T12:20:28;9.23;;;4.35;;
32876;SDS011;19226;51.600;8.034;2023-04-24T12:23:14;8.75;;;4.53;;
32876;SDS011;19226;51.600;8.034;2023-04-24T12:25:59;14.68;;;4.38;;
32876;SDS011;19226;51.600;8.034;2023-04-24T12:28:48;10.77;;;5.07;;
32876;SDS011;19226;51.600;8.034;2023-04-24T12:31:33;7.82;;;4.93;;
32876;SDS011;19226;51.600;8.034;2023-04-24T12:34:21;8.38;;;4.55;;
32876;SDS011;19226;51.600;8.034;2023-04-24T12:37:11;10.50;;;5.07;;
32876;SDS011;19226;51.600;8.034;2023-04-24T12:39:59;15.27;;;5.30;;
32876;SDS011;19226;51.600;8.034;2023-04-24T12:42:46;8.40;;;5.00;;
32876;SDS011;19226;51.600;8.034;2023-04-24T12:45:32;9.73;;;4.72;;
32876;SDS011;19226;51.600;8.034;2023-04-24T12:48:17;10.30;;;5.00;;
32876;SDS011;19226;51.600;8.034;2023-04-24T12:51:02;9.27;;;5.10;;
32876;SDS011;19226;51.600;8.034;2023-04-24T12:53:46;18.27;;;6.03;;
32876;SDS011;19226;51.600;8.034;2023-04-24T12:56:31;11.50;;;5.72;;
32876;SDS011;19226;51.600;8.034;2023-04-24T12:59:15;14.70;;;5.25;;
32876;SDS011;19226;51.600;8.034;2023-04-24T13:02:00;14.68;;;6.32;;
32876;SDS011;19226;51.600;8.034;2023-04-24T13:04:45;14.23;;;6.15;;
32876;SDS011;19226;51.600;8.034;2023-04-24T13:07:30;22.10;;;6.55;;
32876;SDS011;19226;51.600;8.034;2023-04-24T13:10:15;17.42;;;7.03;;
32876;SDS011;19226;51.600;8.034;2023-04-24T13:12:59;13.68;;;6.43;;
32876;SDS011;19226;51.600;8.034;2023-04-24T13:15:44;15.43;;;6.15;;
32876;SDS011;19226;51.600;8.034;2023-04-24T13:18:28;13.70;;;6.60;;
32876;SDS011;19226;51.600;8.034;2023-04-24T13:21:13;18.33;;;5.72;;
32876;SDS011;19226;51.600;8.034;2023-04-24T13:23:57;17.23;;;6.18;;
32876;SDS011;19226;51.600;8.034;2023-04-24T13:26:42;15.10;;;5.85;;
32876;SDS011;19226;51.600;8.034;2023-04-24T13:29:27;12.55;;;5.20;;
32876;SDS011;19226;51.600;8.034;2023-04-24T13:32:11;14.38;;;6.20;;
32876;SDS011;19226;51.600;8.034;2023-04-24T13:34:56;23.88;;;6.28;;
32876;SDS011;19226;51.600;8.034;2023-04-24T13:37:41;12.18;;;5.18;;
32876;SDS011;19226;51.600;8.034;2023-04-24T13:40:26;11.15;;;4.82;;
32876;SDS011;19226;51.600;8.034;2023-04-24T13:43:11;13.32;;;5.50;;
32876;SDS011;19226;51.600;8.034;2023-04-24T13:45:55;7.47;;;3.95;;
32876;SDS011;19226;51.600;8.034;2023-04-24T13:48:40;8.27;;;4.50;;
32876;SDS011;19226;51.600;8.034;2023-04-24T13:51:25;7.40;;;3.60;;
32876;SDS011;19226;51.600;8.034;2023-04-24T13:54:13;11.30;;;3.60;;
32876;SDS011;19226;51.600;8.034;2023-04-24T13:56:58;9.93;;;3.22;;
32876;SDS011;19226;51.600;8.034;2023-04-24T13:59:44;9.13;;;3.22;;
32876;SDS011;19226;51.600;8.034;2023-04-24T14:02:29;4.93;;;2.88;;
32876;SDS011;19226;51.600;8.034;2023-04-24T14:05:14;4.63;;;3.00;;
32876;SDS011;19226;51.600;8.034;2023-04-24T14:08:02;8.32;;;3.00;;
32876;SDS011;19226;51.600;8.034;2023-04-24T14:10:46;8.10;;;3.30;;
32876;SDS011;19226;51.600;8.034;2023-04-24T14:13:32;5.70;;;3.15;;
32876;SDS011;19226;51.600;8.034;2023-04-24T14:16:17;8.43;;;3.17;;
32876;SDS011;19226;51.600;8.034;2023-04-24T14:19:01;10.07;;;3.83;;
32876;SDS011;19226;51.600;8.034;2023-04-24T14:21:46;6.68;;;2.78;;
32876;SDS011;19226;51.600;8.034;2023-04-24T14:24:31;5.60;;;2.90;;
32876;SDS011;19226;51.600;8.034;2023-04-24T14:27:15;3.10;;;2.80;;
32876;SDS011;19226;51.600;8.034;2023-04-24T14:30:00;10.15;;;2.80;;
32876;SDS011;19226;51.600;8.034;2023-04-24T14:32:45;5.93;;;2.63;;
32876;SDS011;19226;51.600;8.034;2023-04-24T14:35:29;8.57;;;3.00;;
32876;SDS011;19226;51.600;8.034;2023-04-24T14:38:16;5.90;;;2.75;;
32876;SDS011;19226;51.600;8.034;2023-04-24T14:41:01;6.50;;;2.70;;
32876;SDS011;19226;51.600;8.034;2023-04-24T14:43:52;9.45;;;3.33;;
32876;SDS011;19226;51.600;8.034;2023-04-24T14:46:36;6.15;;;3.00;;
32876;SDS011;19226;51.600;8.034;2023-04-24T14:49:21;4.35;;;3.53;;
32876;SDS011;19226;51.600;8.034;2023-04-24T14:52:07;10.73;;;3.17;;
32876;SDS011;19226;51.600;8.034;2023-04-24T14:54:51;9.48;;;3.58;;
32876;SDS011;19226;51.600;8.034;2023-04-24T14:57:36;7.50;;;3.33;;
32876;SDS011;19226;51.600;8.034;2023-04-24T15:00:21;7.57;;;2.92;;
32876;SDS011;19226;51.600;8.034;2023-04-24T15:03:07;8.48;;;3.83;;
32876;SDS011;19226;51.600;8.034;2023-04-24T15:05:52;6.70;;;3.67;;
32876;SDS011;19226;51.600;8.034;2023-04-24T15:08:36;2.67;;;2.28;;
32876;SDS011;19226;51.600;8.034;2023-04-24T15:11:21;7.38;;;2.60;;
32876;SDS011;19226;51.600;8.034;2023-04-24T15:14:06;4.97;;;2.60;;
32876;SDS011;19226;51.600;8.034;2023-04-24T15:16:50;5.97;;;2.60;;
32876;SDS011;19226;51.600;8.034;2023-04-24T15:19:35;3.90;;;2.53;;
32876;SDS011;19226;51.600;8.034;2023-04-24T15:22:19;5.82;;;2.78;;
32876;SDS011;19226;51.600;8.034;2023-04-24T15:25:04;7.82;;;2.55;;
32876;SDS011;19226;51.600;8.034;2023-04-24T15:27:49;3.95;;;2.33;;
32876;SDS011;19226;51.600;8.034;2023-04-24T15:30:34;6.55;;;2.92;;
32876;SDS011;19226;51.600;8.034;2023-04-24T15:33:18;3.17;;;2.30;;
32876;SDS011;19226;51.600;8.034;2023-04-24T15:36:05;5.30;;;2.80;;
32876;SDS011;19226;51.600;8.034;2023-04-24T15:38:49;4.50;;;2.80;;
32876;SDS011;19226;51.600;8.034;2023-04-24T15:41:34;4.45;;;2.47;;
32876;SDS011;19226;51.600;8.034;2023-04-24T15:44:19;5.47;;;2.97;;
32876;SDS011;19226;51.600;8.034;2023-04-24T15:47:04;7.70;;;3.75;;
32876;SDS011;19226;51.600;8.034;2023-04-24T15:49:49;7.65;;;2.97;;
32876;SDS011;19226;51.600;8.034;2023-04-24T15:52:35;5.20;;;2.85;;
32876;SDS011;19226;51.600;8.034;2023-04-24T15:55:19;4.13;;;2.90;;
32876;SDS011;19226;51.600;8.034;2023-04-24T15:58:04;6.32;;;3.33;;
32876;SDS011;19226;51.600;8.034;2023-04-24T16:00:48;4.13;;;3.00;;
32876;SDS011;19226;51.600;8.034;2023-04-24T16:03:33;4.97;;;3.22;;
32876;SDS011;19226;51.600;8.034;2023-04-24T16:06:17;4.90;;;3.45;;
32876;SDS011;19226;51.600;8.034;2023-04-24T16:09:02;6.07;;;4.10;;
32876;SDS011;19226;51.600;8.034;2023-04-24T16:11:46;5.35;;;3.85;;
32876;SDS011;19226;51.600;8.034;2023-04-24T16:14:31;3.80;;;3.50;;
32876;SDS011;19226;51.600;8.034;2023-04-24T16:17:16;4.55;;;3.42;;
32876;SDS011;19226;51.600;8.034;2023-04-24T16:20:02;4.10;;;3.67;;
32876;SDS011;19226;51.600;8.034;2023-04-24T16:22:47;4.13;;;2.90;;
32876;SDS011;19226;51.600;8.034;2023-04-24T16:25:32;4.15;;;2.90;;
32876;SDS011;19226;51.600;8.034;2023-04-24T16:28:16;4.18;;;2.92;;
32876;SDS011;19226;51.600;8.034;2023-04-24T16:31:01;1.83;;;1.73;;
32876;SDS011;19226;51.600;8.034;2023-04-24T16:33:46;4.40;;;2.10;;
32876;SDS011;19226;51.600;8.034;2023-04-24T16:36:30;2.97;;;2.67;;
32876;SDS011;19226;51.600;8.034;2023-04-24T16:39:16;4.55;;;2.05;;
32876;SDS011;19226;51.600;8.034;2023-04-24T16:42:00;8.68;;;4.18;;
32876;SDS011;19226;51.600;8.034;2023-04-24T16:44:45;18.35;;;5.97;;
32876;SDS011;19226;51.600;8.034;2023-04-24T16:47:30;2.95;;;2.42;;
32876;SDS011;19226;51.600;8.034;2023-04-24T16:50:15;3.00;;;2.70;;
32876;SDS011;19226;51.600;8.034;2023-04-24T16:53:00;2.88;;;2.30;;